sensor_id;sensor_type;location;lat;lon;timestamp;P1;durP1;ratioP1;P2;durP2;ratioP2
65086;SDS011;52094;51.234;-2.310;2022-09-27T00:03:37;4.53;;;1.30;;
65086;SDS011;52094;51.234;-2.310;2022-09-27T00:07:20;3.10;;;0.73;;
65086;SDS011;52094;51.234;-2.310;2022-09-27T00:11:04;1.92;;;0.68;;
65086;SDS011;52094;51.234;-2.310;2022-09-27T00:14:48;3.63;;;0.73;;
65086;SDS011;52094;51.234;-2.310;2022-09-27T00:18:30;3.90;;;0.88;;
65086;SDS011;52094;51.234;-2.310;2022-09-27T00:22:13;4.57;;;1.52;;
65086;SDS011;52094;51.234;-2.310;2022-09-27T00:25:56;2.78;;;0.93;;
65086;SDS011;52094;51.234;-2.310;2022-09-27T00:29:40;3.25;;;1.00;;
65086;SDS011;52094;51.234;-2.310;2022-09-27T00:33:22;3.80;;;1.48;;
65086;SDS011;52094;51.234;-2.310;2022-09-27T00:37:05;5.80;;;1.10;;
65086;SDS011;52094;51.234;-2.310;2022-09-27T00:40:48;3.50;;;1.10;;
65086;SDS011;52094;51.234;-2.310;2022-09-27T00:48:19;4.95;;;1.10;;
65086;SDS011;52094;51.234;-2.310;2022-09-27T00:52:10;2.47;;;0.88;;
65086;SDS011;52094;51.234;-2.310;2022-09-27T00:59:47;2.45;;;0.85;;
65086;SDS011;52094;51.234;-2.310;2022-09-27T01:07:52;3.10;;;0.80;;
65086;SDS011;52094;51.234;-2.310;2022-09-27T01:23:34;5.88;;;1.70;;
65086;SDS011;52094;51.234;-2.310;2022-09-27T01:32:26;4.28;;;1.55;;
65086;SDS011;52094;51.234;-2.310;2022-09-27T01:36:41;3.10;;;1.23;;
65086;SDS011;52094;51.234;-2.310;2022-09-27T01:48:41;3.03;;;0.60;;
65086;SDS011;52094;51.234;-2.310;2022-09-27T01:52:36;2.78;;;1.10;;
65086;SDS011;52094;51.234;-2.310;2022-09-27T01:56:38;3.15;;;0.85;;
65086;SDS011;52094;51.234;-2.310;2022-09-27T02:00:41;4.63;;;1.17;;
65086;SDS011;52094;51.234;-2.310;2022-09-27T02:04:29;2.38;;;0.88;;
65086;SDS011;52094;51.234;-2.310;2022-09-27T02:08:15;3.67;;;0.82;;
65086;SDS011;52094;51.234;-2.310;2022-09-27T02:16:32;3.97;;;1.13;;
65086;SDS011;52094;51.234;-2.310;2022-09-27T02:24:07;3.80;;;0.90;;
65086;SDS011;52094;51.234;-2.310;2022-09-27T02:31:55;4.57;;;1.17;;
65086;SDS011;52094;51.234;-2.310;2022-09-27T02:35:38;4.30;;;1.20;;
65086;SDS011;52094;51.234;-2.310;2022-09-27T02:39:20;5.88;;;1.00;;
65086;SDS011;52094;51.234;-2.310;2022-09-27T02:43:03;4.65;;;1.20;;
65086;SDS011;52094;51.234;-2.310;2022-09-27T02:55:02;5.70;;;1.35;;
65086;SDS011;52094;51.234;-2.310;2022-09-27T02:59:05;6.90;;;1.48;;
65086;SDS011;52094;51.234;-2.310;2022-09-27T03:03:09;3.65;;;1.00;;
65086;SDS011;52094;51.234;-2.310;2022-09-27T03:06:55;3.30;;;1.17;;
65086;SDS011;52094;51.234;-2.310;2022-09-27T03:10:40;6.97;;;1.50;;
65086;SDS011;52094;51.234;-2.310;2022-09-27T03:14:23;3.95;;;1.30;;
65086;SDS011;52094;51.234;-2.310;2022-09-27T03:18:11;5.95;;;1.35;;
65086;SDS011;52094;51.234;-2.310;2022-09-27T03:21:54;6.00;;;1.20;;
65086;SDS011;52094;51.234;-2.310;2022-09-27T03:25:36;5.72;;;1.48;;
65086;SDS011;52094;51.234;-2.310;2022-09-27T03:29:18;10.80;;;2.10;;
65086;SDS011;52094;51.234;-2.310;2022-09-27T03:33:01;6.18;;;1.52;;
65086;SDS011;52094;51.234;-2.310;2022-09-27T03:36:54;5.75;;;1.70;;
65086;SDS011;52094;51.234;-2.310;2022-09-27T03:44:39;7.28;;;1.80;;
65086;SDS011;52094;51.234;-2.310;2022-09-27T03:48:38;5.97;;;1.20;;
65086;SDS011;52094;51.234;-2.310;2022-09-27T03:52:22;6.18;;;1.40;;
65086;SDS011;52094;51.234;-2.310;2022-09-27T03:56:05;4.25;;;1.15;;
65086;SDS011;52094;51.234;-2.310;2022-09-27T03:59:47;5.18;;;1.63;;
65086;SDS011;52094;51.234;-2.310;2022-09-27T04:03:30;6.38;;;1.50;;
65086;SDS011;52094;51.234;-2.310;2022-09-27T04:07:15;10.23;;;2.38;;
65086;SDS011;52094;51.234;-2.310;2022-09-27T04:10:58;8.20;;;1.65;;
65086;SDS011;52094;51.234;-2.310;2022-09-27T04:14:40;8.48;;;1.80;;
65086;SDS011;52094;51.234;-2.310;2022-09-27T04:18:23;9.75;;;1.73;;
65086;SDS011;52094;51.234;-2.310;2022-09-27T04:22:05;6.63;;;2.00;;
65086;SDS011;52094;51.234;-2.310;2022-09-27T04:25:48;5.88;;;1.70;;
65086;SDS011;52094;51.234;-2.310;2022-09-27T04:29:33;4.18;;;1.52;;
65086;SDS011;52094;51.234;-2.310;2022-09-27T04:33:16;6.72;;;1.63;;
65086;SDS011;52094;51.234;-2.310;2022-09-27T04:36:58;8.50;;;2.42;;
65086;SDS011;52094;51.234;-2.310;2022-09-27T04:40:41;6.10;;;1.73;;
65086;SDS011;52094;51.234;-2.310;2022-09-27T04:44:23;8.70;;;2.10;;
65086;SDS011;52094;51.234;-2.310;2022-09-27T04:48:05;6.90;;;1.88;;
65086;SDS011;52094;51.234;-2.310;2022-09-27T04:51:51;8.48;;;2.17;;
65086;SDS011;52094;51.234;-2.310;2022-09-27T04:55:43;7.97;;;2.10;;
65086;SDS011;52094;51.234;-2.310;2022-09-27T04:59:30;8.95;;;1.90;;
65086;SDS011;52094;51.234;-2.310;2022-09-27T05:03:16;8.13;;;2.78;;
65086;SDS011;52094;51.234;-2.310;2022-09-27T05:07:00;6.65;;;1.85;;
65086;SDS011;52094;51.234;-2.310;2022-09-27T05:10:57;6.05;;;1.85;;
65086;SDS011;52094;51.234;-2.310;2022-09-27T05:14:52;7.05;;;1.65;;
65086;SDS011;52094;51.234;-2.310;2022-09-27T05:18:42;10.00;;;2.10;;
65086;SDS011;52094;51.234;-2.310;2022-09-27T05:26:36;5.47;;;1.63;;
65086;SDS011;52094;51.234;-2.310;2022-09-27T05:30:18;8.23;;;2.03;;
65086;SDS011;52094;51.234;-2.310;2022-09-27T05:34:00;5.82;;;1.73;;
65086;SDS011;52094;51.234;-2.310;2022-09-27T05:37:43;8.65;;;2.63;;
65086;SDS011;52094;51.234;-2.310;2022-09-27T05:41:39;6.72;;;2.10;;
65086;SDS011;52094;51.234;-2.310;2022-09-27T05:45:22;6.53;;;1.77;;
65086;SDS011;52094;51.234;-2.310;2022-09-27T05:49:05;8.82;;;2.17;;
65086;SDS011;52094;51.234;-2.310;2022-09-27T05:52:47;8.55;;;2.25;;
65086;SDS011;52094;51.234;-2.310;2022-09-27T05:56:30;8.05;;;2.00;;
65086;SDS011;52094;51.234;-2.310;2022-09-27T06:00:13;10.50;;;2.55;;
65086;SDS011;52094;51.234;-2.310;2022-09-27T06:04:03;7.75;;;1.85;;
65086;SDS011;52094;51.234;-2.310;2022-09-27T06:07:56;9.82;;;2.50;;
65086;SDS011;52094;51.234;-2.310;2022-09-27T06:11:55;8.88;;;2.08;;
65086;SDS011;52094;51.234;-2.310;2022-09-27T06:15:51;6.82;;;1.90;;
65086;SDS011;52094;51.234;-2.310;2022-09-27T06:19:36;9.13;;;2.13;;
65086;SDS011;52094;51.234;-2.310;2022-09-27T06:23:39;12.10;;;2.40;;
65086;SDS011;52094;51.234;-2.310;2022-09-27T06:31:32;8.68;;;2.28;;
65086;SDS011;52094;51.234;-2.310;2022-09-27T06:35:21;7.88;;;1.92;;
65086;SDS011;52094;51.234;-2.310;2022-09-27T06:39:38;9.02;;;2.10;;
65086;SDS011;52094;51.234;-2.310;2022-09-27T06:43:23;8.68;;;2.15;;
65086;SDS011;52094;51.234;-2.310;2022-09-27T06:47:09;6.45;;;2.00;;
65086;SDS011;52094;51.234;-2.310;2022-09-27T06:50:54;6.60;;;2.03;;
65086;SDS011;52094;51.234;-2.310;2022-09-27T06:54:37;5.82;;;1.65;;
65086;SDS011;52094;51.234;-2.310;2022-09-27T06:58:20;8.07;;;2.08;;
65086;SDS011;52094;51.234;-2.310;2022-09-27T07:02:21;8.25;;;2.40;;
65086;SDS011;52094;51.234;-2.310;2022-09-27T07:06:04;7.63;;;1.70;;
65086;SDS011;52094;51.234;-2.310;2022-09-27T07:09:48;8.02;;;1.60;;
65086;SDS011;52094;51.234;-2.310;2022-09-27T07:13:31;11.25;;;2.08;;
65086;SDS011;52094;51.234;-2.310;2022-09-27T07:17:17;12.02;;;2.50;;
65086;SDS011;52094;51.234;-2.310;2022-09-27T07:21:01;8.82;;;2.25;;
65086;SDS011;52094;51.234;-2.310;2022-09-27T07:24:43;5.55;;;2.13;;
65086;SDS011;52094;51.234;-2.310;2022-09-27T07:28:26;11.27;;;2.53;;
65086;SDS011;52094;51.234;-2.310;2022-09-27T07:32:09;9.52;;;2.50;;
65086;SDS011;52094;51.234;-2.310;2022-09-27T07:35:51;12.20;;;2.65;;
65086;SDS011;52094;51.234;-2.310;2022-09-27T07:39:33;11.45;;;2.72;;
65086;SDS011;52094;51.234;-2.310;2022-09-27T07:43:15;10.45;;;2.50;;
65086;SDS011;52094;51.234;-2.310;2022-09-27T07:46:58;10.77;;;2.83;;
65086;SDS011;52094;51.234;-2.310;2022-09-27T07:50:40;15.25;;;2.78;;
65086;SDS011;52094;51.234;-2.310;2022-09-27T07:54:22;9.75;;;3.15;;
65086;SDS011;52094;51.234;-2.310;2022-09-27T07:58:09;9.65;;;2.65;;
65086;SDS011;52094;51.234;-2.310;2022-09-27T08:01:52;15.25;;;3.85;;
65086;SDS011;52094;51.234;-2.310;2022-09-27T08:05:34;9.90;;;2.63;;
65086;SDS011;52094;51.234;-2.310;2022-09-27T08:09:17;13.10;;;3.63;;
65086;SDS011;52094;51.234;-2.310;2022-09-27T08:13:00;11.07;;;2.63;;
65086;SDS011;52094;51.234;-2.310;2022-09-27T08:16:43;12.18;;;2.65;;
65086;SDS011;52094;51.234;-2.310;2022-09-27T08:20:26;8.88;;;3.03;;
65086;SDS011;52094;51.234;-2.310;2022-09-27T08:24:08;10.95;;;2.30;;
65086;SDS011;52094;51.234;-2.310;2022-09-27T08:27:53;8.77;;;3.10;;
65086;SDS011;52094;51.234;-2.310;2022-09-27T08:31:37;14.48;;;3.28;;
65086;SDS011;52094;51.234;-2.310;2022-09-27T08:35:19;10.82;;;2.75;;
65086;SDS011;52094;51.234;-2.310;2022-09-27T08:39:03;11.57;;;3.20;;
65086;SDS011;52094;51.234;-2.310;2022-09-27T08:43:05;14.30;;;3.50;;
65086;SDS011;52094;51.234;-2.310;2022-09-27T08:51:09;13.70;;;3.17;;
65086;SDS011;52094;51.234;-2.310;2022-09-27T08:54:55;11.73;;;3.00;;
65086;SDS011;52094;51.234;-2.310;2022-09-27T08:59:03;12.45;;;3.25;;
65086;SDS011;52094;51.234;-2.310;2022-09-27T09:02:55;10.88;;;2.83;;
65086;SDS011;52094;51.234;-2.310;2022-09-27T09:06:49;14.05;;;3.42;;
65086;SDS011;52094;51.234;-2.310;2022-09-27T09:22:46;11.35;;;3.08;;
65086;SDS011;52094;51.234;-2.310;2022-09-27T09:34:40;9.30;;;2.70;;
65086;SDS011;52094;51.234;-2.310;2022-09-27T09:38:43;8.15;;;2.42;;
65086;SDS011;52094;51.234;-2.310;2022-09-27T09:50:19;11.48;;;3.08;;
65086;SDS011;52094;51.234;-2.310;2022-09-27T09:54:13;9.80;;;2.83;;
65086;SDS011;52094;51.234;-2.310;2022-09-27T10:02:06;7.03;;;2.33;;
65086;SDS011;52094;51.234;-2.310;2022-09-27T10:06:17;8.05;;;2.58;;
65086;SDS011;52094;51.234;-2.310;2022-09-27T10:10:15;6.72;;;2.60;;
65086;SDS011;52094;51.234;-2.310;2022-09-27T10:14:00;7.57;;;2.28;;
65086;SDS011;52094;51.234;-2.310;2022-09-27T10:17:44;9.45;;;2.30;;
65086;SDS011;52094;51.234;-2.310;2022-09-27T10:21:37;7.55;;;2.35;;
65086;SDS011;52094;51.234;-2.310;2022-09-27T10:25:22;7.18;;;2.20;;
65086;SDS011;52094;51.234;-2.310;2022-09-27T10:29:24;8.27;;;2.20;;
65086;SDS011;52094;51.234;-2.310;2022-09-27T10:33:18;7.22;;;1.77;;
65086;SDS011;52094;51.234;-2.310;2022-09-27T10:37:17;8.95;;;2.40;;
65086;SDS011;52094;51.234;-2.310;2022-09-27T10:44:57;6.22;;;1.70;;
65086;SDS011;52094;51.234;-2.310;2022-09-27T10:48:39;7.00;;;1.77;;
65086;SDS011;52094;51.234;-2.310;2022-09-27T10:52:25;6.18;;;1.75;;
65086;SDS011;52094;51.234;-2.310;2022-09-27T10:56:08;9.55;;;2.17;;
65086;SDS011;52094;51.234;-2.310;2022-09-27T11:00:19;10.00;;;2.50;;
65086;SDS011;52094;51.234;-2.310;2022-09-27T11:04:14;7.25;;;2.30;;
65086;SDS011;52094;51.234;-2.310;2022-09-27T11:12:20;8.80;;;2.25;;
65086;SDS011;52094;51.234;-2.310;2022-09-27T11:20:02;7.72;;;2.17;;
65086;SDS011;52094;51.234;-2.310;2022-09-27T11:31:56;11.07;;;2.35;;
65086;SDS011;52094;51.234;-2.310;2022-09-27T11:36:00;10.02;;;2.85;;
65086;SDS011;52094;51.234;-2.310;2022-09-27T11:40:07;9.23;;;2.22;;
65086;SDS011;52094;51.234;-2.310;2022-09-27T12:12:52;9.55;;;2.55;;
65086;SDS011;52094;51.234;-2.310;2022-09-27T12:16:38;9.52;;;2.75;;
65086;SDS011;52094;51.234;-2.310;2022-09-27T12:20:24;8.35;;;2.70;;
65086;SDS011;52094;51.234;-2.310;2022-09-27T12:24:17;7.88;;;2.42;;
65086;SDS011;52094;51.234;-2.310;2022-09-27T12:28:13;10.20;;;2.88;;
65086;SDS011;52094;51.234;-2.310;2022-09-27T12:32:23;9.98;;;2.35;;
65086;SDS011;52094;51.234;-2.310;2022-09-27T12:36:20;7.88;;;2.63;;
65086;SDS011;52094;51.234;-2.310;2022-09-27T12:40:20;7.28;;;2.38;;
65086;SDS011;52094;51.234;-2.310;2022-09-27T12:44:10;8.45;;;2.67;;
65086;SDS011;52094;51.234;-2.310;2022-09-27T12:52:05;10.55;;;2.55;;
65086;SDS011;52094;51.234;-2.310;2022-09-27T12:56:05;7.50;;;2.15;;
65086;SDS011;52094;51.234;-2.310;2022-09-27T13:00:15;6.53;;;2.10;;
65086;SDS011;52094;51.234;-2.310;2022-09-27T13:08:16;7.97;;;2.15;;
65086;SDS011;52094;51.234;-2.310;2022-09-27T13:12:36;7.47;;;2.13;;
65086;SDS011;52094;51.234;-2.310;2022-09-27T13:16:23;6.57;;;2.15;;
65086;SDS011;52094;51.234;-2.310;2022-09-27T13:48:54;8.80;;;2.78;;
65086;SDS011;52094;51.234;-2.310;2022-09-27T14:00:24;8.70;;;2.53;;
65086;SDS011;52094;51.234;-2.310;2022-09-27T14:04:16;7.90;;;2.20;;
65086;SDS011;52094;51.234;-2.310;2022-09-27T14:08:01;9.70;;;2.70;;
65086;SDS011;52094;51.234;-2.310;2022-09-27T14:11:47;7.47;;;2.33;;
65086;SDS011;52094;51.234;-2.310;2022-09-27T14:15:33;10.70;;;2.28;;
65086;SDS011;52094;51.234;-2.310;2022-09-27T14:19:22;11.43;;;2.70;;
65086;SDS011;52094;51.234;-2.310;2022-09-27T14:23:43;8.55;;;2.90;;
65086;SDS011;52094;51.234;-2.310;2022-09-27T14:27:19;9.38;;;2.47;;
65086;SDS011;52094;51.234;-2.310;2022-09-27T14:31:13;12.40;;;3.30;;
65086;SDS011;52094;51.234;-2.310;2022-09-27T14:39:12;9.18;;;2.80;;
65086;SDS011;52094;51.234;-2.310;2022-09-27T14:43:18;9.13;;;2.28;;
65086;SDS011;52094;51.234;-2.310;2022-09-27T14:47:14;10.10;;;2.30;;
65086;SDS011;52094;51.234;-2.310;2022-09-27T14:51:00;8.55;;;2.00;;
65086;SDS011;52094;51.234;-2.310;2022-09-27T14:54:55;15.15;;;2.33;;
65086;SDS011;52094;51.234;-2.310;2022-09-27T14:58:56;7.57;;;2.38;;
65086;SDS011;52094;51.234;-2.310;2022-09-27T15:02:44;10.65;;;2.70;;
65086;SDS011;52094;51.234;-2.310;2022-09-27T15:06:26;12.73;;;3.00;;
65086;SDS011;52094;51.234;-2.310;2022-09-27T15:10:13;9.95;;;2.30;;
65086;SDS011;52094;51.234;-2.310;2022-09-27T15:14:00;9.20;;;2.65;;
65086;SDS011;52094;51.234;-2.310;2022-09-27T15:17:48;11.55;;;2.90;;
65086;SDS011;52094;51.234;-2.310;2022-09-27T15:21:31;9.68;;;2.55;;
65086;SDS011;52094;51.234;-2.310;2022-09-27T15:29:19;11.13;;;3.45;;
65086;SDS011;52094;51.234;-2.310;2022-09-27T15:33:04;11.35;;;2.67;;
65086;SDS011;52094;51.234;-2.310;2022-09-27T15:37:02;9.60;;;3.25;;
65086;SDS011;52094;51.234;-2.310;2022-09-27T15:48:19;9.85;;;3.35;;
65086;SDS011;52094;51.234;-2.310;2022-09-27T15:52:02;9.60;;;2.40;;
65086;SDS011;52094;51.234;-2.310;2022-09-27T15:55:45;9.05;;;2.13;;
65086;SDS011;52094;51.234;-2.310;2022-09-27T15:59:28;6.57;;;1.85;;
65086;SDS011;52094;51.234;-2.310;2022-09-27T16:03:12;8.00;;;2.22;;
65086;SDS011;52094;51.234;-2.310;2022-09-27T16:06:54;5.00;;;1.60;;
65086;SDS011;52094;51.234;-2.310;2022-09-27T16:10:37;8.65;;;2.20;;
65086;SDS011;52094;51.234;-2.310;2022-09-27T16:14:21;7.20;;;2.13;;
65086;SDS011;52094;51.234;-2.310;2022-09-27T16:18:03;7.65;;;2.05;;
65086;SDS011;52094;51.234;-2.310;2022-09-27T16:21:46;9.57;;;1.95;;
65086;SDS011;52094;51.234;-2.310;2022-09-27T16:25:29;10.38;;;2.13;;
65086;SDS011;52094;51.234;-2.310;2022-09-27T16:29:13;7.50;;;2.15;;
65086;SDS011;52094;51.234;-2.310;2022-09-27T16:32:56;8.30;;;1.77;;
65086;SDS011;52094;51.234;-2.310;2022-09-27T16:36:39;6.18;;;1.92;;
65086;SDS011;52094;51.234;-2.310;2022-09-27T16:40:21;7.13;;;2.20;;
65086;SDS011;52094;51.234;-2.310;2022-09-27T16:44:07;5.18;;;1.90;;
65086;SDS011;52094;51.234;-2.310;2022-09-27T16:47:56;6.78;;;1.92;;
65086;SDS011;52094;51.234;-2.310;2022-09-27T16:51:39;6.80;;;1.90;;
65086;SDS011;52094;51.234;-2.310;2022-09-27T16:55:39;8.02;;;1.98;;
65086;SDS011;52094;51.234;-2.310;2022-09-27T16:59:22;5.07;;;1.90;;
65086;SDS011;52094;51.234;-2.310;2022-09-27T17:03:05;6.95;;;1.75;;
65086;SDS011;52094;51.234;-2.310;2022-09-27T17:06:49;5.57;;;1.40;;
65086;SDS011;52094;51.234;-2.310;2022-09-27T17:10:31;4.28;;;1.42;;
65086;SDS011;52094;51.234;-2.310;2022-09-27T17:14:16;5.45;;;2.05;;
65086;SDS011;52094;51.234;-2.310;2022-09-27T17:17:59;6.82;;;1.75;;
65086;SDS011;52094;51.234;-2.310;2022-09-27T17:21:41;6.50;;;2.15;;
65086;SDS011;52094;51.234;-2.310;2022-09-27T17:25:24;4.78;;;1.88;;
65086;SDS011;52094;51.234;-2.310;2022-09-27T17:29:06;6.32;;;2.53;;
65086;SDS011;52094;51.234;-2.310;2022-09-27T17:32:51;7.07;;;1.90;;
65086;SDS011;52094;51.234;-2.310;2022-09-27T17:36:33;4.85;;;1.70;;
65086;SDS011;52094;51.234;-2.310;2022-09-27T17:40:17;5.95;;;1.85;;
65086;SDS011;52094;51.234;-2.310;2022-09-27T17:44:00;6.70;;;1.88;;
65086;SDS011;52094;51.234;-2.310;2022-09-27T17:47:52;5.28;;;1.83;;
65086;SDS011;52094;51.234;-2.310;2022-09-27T17:51:55;6.90;;;2.08;;
65086;SDS011;52094;51.234;-2.310;2022-09-27T17:55:40;6.07;;;1.83;;
65086;SDS011;52094;51.234;-2.310;2022-09-27T17:59:23;6.15;;;1.83;;
65086;SDS011;52094;51.234;-2.310;2022-09-27T18:03:06;6.78;;;1.55;;
65086;SDS011;52094;51.234;-2.310;2022-09-27T18:06:50;5.13;;;1.20;;
65086;SDS011;52094;51.234;-2.310;2022-09-27T18:10:32;3.92;;;1.30;;
65086;SDS011;52094;51.234;-2.310;2022-09-27T18:14:16;3.90;;;1.50;;
65086;SDS011;52094;51.234;-2.310;2022-09-27T18:17:58;4.93;;;1.45;;
65086;SDS011;52094;51.234;-2.310;2022-09-27T18:21:44;6.13;;;1.75;;
65086;SDS011;52094;51.234;-2.310;2022-09-27T18:25:27;4.95;;;1.40;;
65086;SDS011;52094;51.234;-2.310;2022-09-27T18:29:11;7.28;;;1.65;;
65086;SDS011;52094;51.234;-2.310;2022-09-27T18:32:55;5.95;;;1.58;;
65086;SDS011;52094;51.234;-2.310;2022-09-27T18:36:38;5.43;;;1.65;;
65086;SDS011;52094;51.234;-2.310;2022-09-27T18:40:23;5.32;;;1.35;;
65086;SDS011;52094;51.234;-2.310;2022-09-27T18:44:26;3.58;;;1.25;;
65086;SDS011;52094;51.234;-2.310;2022-09-27T18:48:08;5.53;;;1.50;;
65086;SDS011;52094;51.234;-2.310;2022-09-27T18:51:50;5.05;;;1.38;;
65086;SDS011;52094;51.234;-2.310;2022-09-27T18:55:35;4.18;;;1.40;;
65086;SDS011;52094;51.234;-2.310;2022-09-27T18:59:18;6.10;;;1.90;;
65086;SDS011;52094;51.234;-2.310;2022-09-27T19:03:04;5.93;;;1.60;;
65086;SDS011;52094;51.234;-2.310;2022-09-27T19:06:46;6.10;;;1.83;;
65086;SDS011;52094;51.234;-2.310;2022-09-27T19:10:28;5.43;;;1.45;;
65086;SDS011;52094;51.234;-2.310;2022-09-27T19:14:15;3.78;;;1.05;;
65086;SDS011;52094;51.234;-2.310;2022-09-27T19:18:00;4.80;;;1.52;;
65086;SDS011;52094;51.234;-2.310;2022-09-27T19:21:45;5.60;;;2.00;;
65086;SDS011;52094;51.234;-2.310;2022-09-27T19:25:37;6.10;;;1.70;;
65086;SDS011;52094;51.234;-2.310;2022-09-27T19:29:22;5.32;;;1.52;;
65086;SDS011;52094;51.234;-2.310;2022-09-27T19:33:11;6.63;;;1.37;;
65086;SDS011;52094;51.234;-2.310;2022-09-27T19:37:11;6.65;;;1.40;;
65086;SDS011;52094;51.234;-2.310;2022-09-27T19:40:54;7.15;;;1.40;;
65086;SDS011;52094;51.234;-2.310;2022-09-27T19:44:37;4.80;;;1.52;;
65086;SDS011;52094;51.234;-2.310;2022-09-27T19:48:19;4.55;;;1.73;;
65086;SDS011;52094;51.234;-2.310;2022-09-27T19:52:02;4.85;;;1.33;;
65086;SDS011;52094;51.234;-2.310;2022-09-27T19:55:45;4.25;;;1.45;;
65086;SDS011;52094;51.234;-2.310;2022-09-27T19:59:39;4.72;;;1.60;;
65086;SDS011;52094;51.234;-2.310;2022-09-27T20:03:26;4.20;;;1.40;;
65086;SDS011;52094;51.234;-2.310;2022-09-27T20:07:09;5.95;;;1.60;;
65086;SDS011;52094;51.234;-2.310;2022-09-27T20:10:52;4.43;;;1.50;;
65086;SDS011;52094;51.234;-2.310;2022-09-27T20:14:46;4.70;;;1.70;;
65086;SDS011;52094;51.234;-2.310;2022-09-27T20:18:31;3.47;;;1.63;;
65086;SDS011;52094;51.234;-2.310;2022-09-27T20:22:25;5.57;;;1.73;;
65086;SDS011;52094;51.234;-2.310;2022-09-27T20:26:14;3.97;;;1.35;;
65086;SDS011;52094;51.234;-2.310;2022-09-27T20:30:02;4.40;;;1.50;;
65086;SDS011;52094;51.234;-2.310;2022-09-27T20:33:45;4.65;;;1.50;;
65086;SDS011;52094;51.234;-2.310;2022-09-27T20:37:31;8.68;;;3.75;;
65086;SDS011;52094;51.234;-2.310;2022-09-27T20:41:16;7.63;;;2.65;;
65086;SDS011;52094;51.234;-2.310;2022-09-27T20:45:00;11.02;;;5.35;;
65086;SDS011;52094;51.234;-2.310;2022-09-27T20:48:43;7.28;;;3.47;;
65086;SDS011;52094;51.234;-2.310;2022-09-27T20:52:27;5.00;;;1.92;;
65086;SDS011;52094;51.234;-2.310;2022-09-27T21:00:01;6.53;;;1.67;;
65086;SDS011;52094;51.234;-2.310;2022-09-27T21:03:43;4.30;;;1.35;;
65086;SDS011;52094;51.234;-2.310;2022-09-27T21:07:29;4.25;;;1.40;;
65086;SDS011;52094;51.234;-2.310;2022-09-27T21:11:14;6.55;;;1.75;;
65086;SDS011;52094;51.234;-2.310;2022-09-27T21:14:58;4.63;;;1.65;;
65086;SDS011;52094;51.234;-2.310;2022-09-27T21:18:42;4.30;;;1.52;;
65086;SDS011;52094;51.234;-2.310;2022-09-27T21:22:27;6.45;;;1.48;;
65086;SDS011;52094;51.234;-2.310;2022-09-27T21:26:18;3.75;;;1.27;;
65086;SDS011;52094;51.234;-2.310;2022-09-27T21:30:09;4.72;;;1.52;;
65086;SDS011;52094;51.234;-2.310;2022-09-27T21:33:54;4.78;;;1.33;;
65086;SDS011;52094;51.234;-2.310;2022-09-27T21:37:38;4.80;;;1.40;;
65086;SDS011;52094;51.234;-2.310;2022-09-27T21:41:21;5.65;;;1.30;;
65086;SDS011;52094;51.234;-2.310;2022-09-27T21:45:04;6.07;;;1.60;;
65086;SDS011;52094;51.234;-2.310;2022-09-27T21:48:48;5.13;;;1.65;;
65086;SDS011;52094;51.234;-2.310;2022-09-27T21:52:32;6.13;;;1.50;;
65086;SDS011;52094;51.234;-2.310;2022-09-27T21:56:15;3.60;;;1.25;;
65086;SDS011;52094;51.234;-2.310;2022-09-27T21:59:58;5.63;;;1.33;;
65086;SDS011;52094;51.234;-2.310;2022-09-27T22:03:41;4.00;;;1.40;;
65086;SDS011;52094;51.234;-2.310;2022-09-27T22:07:23;6.25;;;1.40;;
65086;SDS011;52094;51.234;-2.310;2022-09-27T22:11:06;6.65;;;1.67;;
65086;SDS011;52094;51.234;-2.310;2022-09-27T22:14:49;6.30;;;1.85;;
65086;SDS011;52094;51.234;-2.310;2022-09-27T22:18:31;4.50;;;1.58;;
65086;SDS011;52094;51.234;-2.310;2022-09-27T22:22:21;4.18;;;1.42;;
65086;SDS011;52094;51.234;-2.310;2022-09-27T22:26:14;5.00;;;1.60;;
65086;SDS011;52094;51.234;-2.310;2022-09-27T22:30:01;7.13;;;1.30;;
65086;SDS011;52094;51.234;-2.310;2022-09-27T22:33:48;6.70;;;2.33;;
65086;SDS011;52094;51.234;-2.310;2022-09-27T22:37:31;3.65;;;0.95;;
65086;SDS011;52094;51.234;-2.310;2022-09-27T22:41:15;6.28;;;1.38;;
65086;SDS011;52094;51.234;-2.310;2022-09-27T22:44:58;4.78;;;1.60;;
65086;SDS011;52094;51.234;-2.310;2022-09-27T22:48:40;4.93;;;1.38;;
65086;SDS011;52094;51.234;-2.310;2022-09-27T22:52:24;6.97;;;1.58;;
65086;SDS011;52094;51.234;-2.310;2022-09-27T22:56:11;5.53;;;1.50;;
65086;SDS011;52094;51.234;-2.310;2022-09-27T22:59:55;8.20;;;2.10;;
65086;SDS011;52094;51.234;-2.310;2022-09-27T23:03:37;3.88;;;1.17;;
65086;SDS011;52094;51.234;-2.310;2022-09-27T23:07:20;6.18;;;1.80;;
65086;SDS011;52094;51.234;-2.310;2022-09-27T23:11:06;6.93;;;2.35;;
65086;SDS011;52094;51.234;-2.310;2022-09-27T23:14:50;5.75;;;1.52;;
65086;SDS011;52094;51.234;-2.310;2022-09-27T23:18:32;6.80;;;1.95;;
65086;SDS011;52094;51.234;-2.310;2022-09-27T23:22:18;5.90;;;1.60;;
65086;SDS011;52094;51.234;-2.310;2022-09-27T23:26:02;5.00;;;1.92;;
65086;SDS011;52094;51.234;-2.310;2022-09-27T23:29:46;4.97;;;1.52;;
65086;SDS011;52094;51.234;-2.310;2022-09-27T23:33:28;5.35;;;1.38;;
65086;SDS011;52094;51.234;-2.310;2022-09-27T23:37:10;4.32;;;1.33;;
65086;SDS011;52094;51.234;-2.310;2022-09-27T23:40:52;5.80;;;1.60;;
65086;SDS011;52094;51.234;-2.310;2022-09-27T23:44:34;9.05;;;1.95;;
65086;SDS011;52094;51.234;-2.310;2022-09-27T23:48:20;4.53;;;1.45;;
65086;SDS011;52094;51.234;-2.310;2022-09-27T23:52:03;6.15;;;1.58;;
65086;SDS011;52094;51.234;-2.310;2022-09-27T23:55:45;4.75;;;1.10;;
65086;SDS011;52094;51.234;-2.310;2022-09-27T23:59:28;5.78;;;1.75;;
